createdAt,value
2023-05-21T00:00:32.092Z,88.18
2023-05-21T00:01:32.091Z,88.18
2023-05-21T00:02:32.107Z,88.08
2023-05-21T00:03:32.162Z,88.18
2023-05-21T00:04:32.057Z,88.18
2023-05-21T00:05:32.129Z,88.18
2023-05-21T00:06:32.077Z,88.28
2023-05-21T00:07:32.047Z,88.18
2023-05-21T00:08:32.010Z,88.28
2023-05-21T00:09:32.009Z,88.48
2023-05-21T00:10:32.138Z,88.28
2023-05-21T00:11:32.051Z,88.18
2023-05-21T00:12:31.979Z,88.48
2023-05-21T00:13:31.974Z,88.28
2023-05-21T00:14:31.974Z,88.39
2023-05-21T00:15:31.937Z,88.39
2023-05-21T00:16:31.967Z,88.39
2023-05-21T00:17:31.956Z,88.39
2023-05-21T00:18:31.920Z,88.28
2023-05-21T00:19:31.970Z,88.39
2023-05-21T00:20:31.904Z,88.39
2023-05-21T00:21:31.888Z,88.08
2023-05-21T00:22:31.876Z,88.18
2023-05-21T00:23:31.892Z,88.08
2023-05-21T00:24:31.825Z,88.28
2023-05-21T00:25:31.862Z,88.18
2023-05-21T00:26:31.823Z,88.08
2023-05-21T00:27:31.843Z,87.98
2023-05-21T00:28:31.829Z,87.98
2023-05-21T00:29:31.786Z,87.98
2023-05-21T00:30:31.818Z,87.98
2023-05-21T00:31:31.834Z,87.98
2023-05-21T00:32:31.786Z,87.98
2023-05-21T00:33:31.765Z,87.98
2023-05-21T00:34:31.729Z,87.87
2023-05-21T00:35:31.761Z,87.98
2023-05-21T00:36:31.773Z,87.87
2023-05-21T00:37:31.702Z,87.87
2023-05-21T00:38:31.704Z,87.98
2023-05-21T00:39:31.722Z,87.98
2023-05-21T00:40:31.682Z,88.18
2023-05-21T00:41:31.683Z,88.18
2023-05-21T00:42:31.667Z,88.39
2023-05-21T00:43:31.674Z,88.28
2023-05-21T00:44:31.641Z,88.39
2023-05-21T00:45:31.751Z,88.48
2023-05-21T00:46:31.657Z,88.39
2023-05-21T00:47:31.680Z,88.39
2023-05-21T00:48:31.643Z,88.28
2023-05-21T00:49:31.594Z,88.18
2023-05-21T00:50:31.576Z,88.18
2023-05-21T00:51:31.640Z,88.18
2023-05-21T00:52:31.564Z,88.39
2023-05-21T00:53:31.560Z,88.28
2023-05-21T00:54:31.549Z,88.28
2023-05-21T00:55:31.550Z,88.39
2023-05-21T00:56:31.522Z,88.28
2023-05-21T00:57:31.536Z,88.28
2023-05-21T00:58:31.551Z,88.39
2023-05-21T00:59:31.505Z,88.48
2023-05-21T01:00:32.354Z,88.39
2023-05-21T01:01:31.468Z,88.39
2023-05-21T01:02:31.543Z,88.28
2023-05-21T01:03:31.505Z,88.39
2023-05-21T01:04:31.425Z,88.39
2023-05-21T01:05:31.434Z,88.48
2023-05-21T01:06:31.402Z,88.48
2023-05-21T01:07:31.417Z,88.59
2023-05-21T01:08:31.435Z,88.59
2023-05-21T01:09:31.395Z,88.69
2023-05-21T01:10:31.371Z,88.69
2023-05-21T01:11:31.388Z,88.83
2023-05-21T01:12:31.349Z,88.83
2023-05-21T01:13:31.365Z,89.03
2023-05-21T01:14:31.357Z,89.03
2023-05-21T01:15:31.322Z,89.03
2023-05-21T01:16:31.349Z,89.14
2023-05-21T01:17:31.319Z,89.34
2023-05-21T01:18:31.406Z,89.24
2023-05-21T01:19:31.376Z,89.34
2023-05-21T01:20:31.249Z,89.44
2023-05-21T01:21:31.308Z,89.44
2023-05-21T01:22:31.267Z,89.44
2023-05-21T01:23:31.241Z,89.64
2023-05-21T01:24:31.226Z,89.75
2023-05-21T01:25:31.262Z,89.75
2023-05-21T01:26:31.213Z,89.75
2023-05-21T01:27:31.218Z,89.64
2023-05-21T01:28:31.186Z,89.75
2023-05-21T01:29:31.253Z,89.54
2023-05-21T01:30:31.190Z,89.54
2023-05-21T01:31:31.245Z,89.54
2023-05-21T01:32:31.175Z,89.64
2023-05-21T01:33:31.201Z,89.85
2023-05-21T01:34:31.139Z,89.85
2023-05-21T01:35:31.184Z,90.09
2023-05-21T01:36:31.138Z,90.09
2023-05-21T01:37:31.097Z,89.99
2023-05-21T01:38:31.114Z,90.20
2023-05-21T01:39:31.100Z,90.30
2023-05-21T01:40:31.070Z,90.20
2023-05-21T01:41:31.948Z,90.30
2023-05-21T01:42:31.065Z,90.30
2023-05-21T01:43:31.080Z,90.09
2023-05-21T01:44:31.047Z,90.09
2023-05-21T01:45:31.809Z,90.16
2023-05-21T01:46:31.058Z,90.05
2023-05-21T01:47:31.012Z,89.95
2023-05-21T01:48:31.008Z,89.95
2023-05-21T01:49:30.990Z,89.99
2023-05-21T01:50:30.964Z,89.89
2023-05-21T01:51:31.131Z,89.89
2023-05-21T01:52:30.915Z,90.20
2023-05-21T01:53:30.941Z,90.20
2023-05-21T01:54:30.921Z,90.30
2023-05-21T01:55:30.921Z,90.40
2023-05-21T01:56:30.892Z,90.40
2023-05-21T01:57:30.916Z,90.30
2023-05-21T01:58:30.874Z,90.30
2023-05-21T01:59:30.889Z,90.30
2023-05-21T02:00:30.870Z,90.20
2023-05-21T02:01:30.890Z,90.30
2023-05-21T02:02:30.883Z,90.40
2023-05-21T02:03:30.886Z,90.50
2023-05-21T02:04:30.809Z,90.50
2023-05-21T02:05:30.828Z,90.60
2023-05-21T02:06:30.777Z,90.70
2023-05-21T02:07:30.794Z,90.70
2023-05-21T02:08:30.777Z,90.70
2023-05-21T02:09:30.744Z,90.70
2023-05-21T02:10:30.767Z,90.70
2023-05-21T02:11:30.753Z,90.81
2023-05-21T02:12:30.728Z,90.60
2023-05-21T02:13:30.729Z,90.60
2023-05-21T02:14:30.716Z,90.70
2023-05-21T02:15:30.673Z,90.70
2023-05-21T02:16:30.797Z,90.81
2023-05-21T02:17:30.887Z,91.01
2023-05-21T02:18:30.684Z,91.01
2023-05-21T02:19:30.739Z,91.01
2023-05-21T02:20:30.712Z,91.01
2023-05-21T02:21:30.642Z,91.01
2023-05-21T02:22:30.660Z,91.01
2023-05-21T02:23:30.619Z,91.11
2023-05-21T02:24:30.619Z,91.22
2023-05-21T02:25:30.609Z,91.11
2023-05-21T02:26:30.604Z,91.22
2023-05-21T02:27:30.588Z,91.22
2023-05-21T02:28:30.595Z,91.22
2023-05-21T02:29:30.532Z,91.22
2023-05-21T02:30:30.556Z,91.31
2023-05-21T02:31:30.518Z,91.42
2023-05-21T02:32:30.637Z,91.31
2023-05-21T02:33:30.508Z,91.42
2023-05-21T02:34:30.605Z,91.56
2023-05-21T02:35:30.982Z,91.56
2023-05-21T02:36:30.501Z,91.66
2023-05-21T02:37:30.465Z,91.66
2023-05-21T02:38:30.500Z,91.66
2023-05-21T02:39:30.462Z,91.77
2023-05-21T02:40:30.474Z,91.77
2023-05-21T02:41:30.432Z,91.87
2023-05-21T02:42:30.448Z,91.87
2023-05-21T02:43:30.458Z,91.97
2023-05-21T02:44:30.425Z,91.97
2023-05-21T02:45:30.438Z,91.97
2023-05-21T02:46:30.504Z,91.97
2023-05-21T02:47:30.471Z,92.18
2023-05-21T02:48:30.371Z,92.18
2023-05-21T02:49:30.434Z,92.18
2023-05-21T02:50:30.358Z,92.18
2023-05-21T02:51:30.272Z,92.07
2023-05-21T02:52:30.339Z,92.27
2023-05-21T02:53:30.256Z,92.38
2023-05-21T02:54:30.282Z,92.27
2023-05-21T02:55:30.285Z,92.58
2023-05-21T02:56:30.257Z,92.72
2023-05-21T02:57:30.220Z,92.72
2023-05-21T02:58:30.208Z,92.83
2023-05-21T02:59:30.316Z,92.93
2023-05-21T03:00:30.205Z,92.83
2023-05-21T03:01:30.215Z,92.63
2023-05-21T03:02:30.334Z,92.93
2023-05-21T03:03:30.349Z,93.03
2023-05-21T03:04:30.177Z,93.24
2023-05-21T03:05:30.145Z,93.54
2023-05-21T03:06:30.127Z,93.54
2023-05-21T03:07:30.156Z,93.33
2023-05-21T03:08:30.125Z,93.54
2023-05-21T03:09:30.111Z,93.44
2023-05-21T03:10:30.084Z,93.54
2023-05-21T03:11:30.080Z,93.44
2023-05-21T03:12:30.102Z,93.33
2023-05-21T03:13:30.122Z,93.74
2023-05-21T03:14:30.046Z,93.95
2023-05-21T03:15:30.080Z,93.95
2023-05-21T03:16:30.031Z,93.64
2023-05-21T03:17:30.095Z,93.95
2023-05-21T03:18:30.045Z,93.95
2023-05-21T03:19:30.027Z,94.05
2023-05-21T03:20:29.985Z,94.15
2023-05-21T03:21:30.012Z,94.15
2023-05-21T03:22:29.966Z,94.15
2023-05-21T03:23:29.953Z,94.15
2023-05-21T03:24:29.938Z,94.20
2023-05-21T03:25:29.930Z,94.15
2023-05-21T03:26:29.893Z,94.26
2023-05-21T03:27:29.919Z,94.15
2023-05-21T03:28:29.928Z,94.26
2023-05-21T03:29:29.862Z,94.40
2023-05-21T03:30:29.868Z,94.35
2023-05-21T03:31:29.856Z,94.15
2023-05-21T03:32:29.883Z,94.26
2023-05-21T03:33:29.823Z,94.26
2023-05-21T03:34:29.823Z,94.15
2023-05-21T03:35:29.810Z,94.35
2023-05-21T03:36:29.813Z,94.35
2023-05-21T03:37:29.781Z,94.40
2023-05-21T03:38:29.783Z,94.20
2023-05-21T03:39:29.757Z,93.99
2023-05-21T03:40:29.767Z,94.09
2023-05-21T03:41:29.770Z,94.30
2023-05-21T03:42:29.751Z,94.40
2023-05-21T03:43:29.744Z,94.71
2023-05-21T03:44:29.700Z,95.01
2023-05-21T03:45:29.757Z,95.12
2023-05-21T03:46:29.752Z,95.12
2023-05-21T03:47:29.706Z,94.91
2023-05-21T03:48:29.753Z,95.12
2023-05-21T03:49:29.712Z,95.12
2023-05-21T03:50:29.670Z,95.21
2023-05-21T03:51:29.658Z,95.21
2023-05-21T03:52:29.653Z,95.21
2023-05-21T03:53:29.634Z,95.01
2023-05-21T03:54:29.599Z,94.81
2023-05-21T03:55:29.602Z,95.01
2023-05-21T03:56:29.621Z,94.71
2023-05-21T03:57:29.562Z,95.01
2023-05-21T03:58:29.579Z,95.01
2023-05-21T03:59:29.572Z,94.97
2023-05-21T04:00:29.549Z,94.76
2023-05-21T04:01:29.562Z,94.76
2023-05-21T04:02:29.600Z,94.76
2023-05-21T04:03:29.789Z,94.76
2023-05-21T04:04:29.620Z,94.66
2023-05-21T04:05:29.535Z,94.66
2023-05-21T04:06:29.555Z,94.66
2023-05-21T04:07:29.477Z,94.56
2023-05-21T04:08:29.519Z,94.46
2023-05-21T04:09:29.443Z,94.56
2023-05-21T04:10:29.448Z,94.46
2023-05-21T04:11:29.463Z,94.35
2023-05-21T04:12:29.509Z,94.35
2023-05-21T04:13:29.437Z,94.21
2023-05-21T04:14:29.426Z,94.11
2023-05-21T04:15:29.390Z,94.11
2023-05-21T04:16:29.451Z,94.11
2023-05-21T04:17:29.381Z,94.11
2023-05-21T04:18:29.396Z,94.11
2023-05-21T04:19:29.397Z,94.01
2023-05-21T04:20:29.326Z,93.80
2023-05-21T04:21:29.318Z,93.90
2023-05-21T04:22:29.349Z,93.80
2023-05-21T04:23:29.324Z,94.01
2023-05-21T04:24:29.302Z,93.80
2023-05-21T04:25:29.288Z,93.80
2023-05-21T04:26:29.262Z,93.80
2023-05-21T04:27:29.306Z,93.60
2023-05-21T04:28:29.251Z,93.60
2023-05-21T04:29:29.240Z,93.60
2023-05-21T04:30:29.230Z,93.66
2023-05-21T04:31:29.318Z,93.90
2023-05-21T04:32:29.273Z,94.01
2023-05-21T04:33:29.220Z,93.90
2023-05-21T04:34:29.204Z,93.86
2023-05-21T04:35:29.170Z,93.90
2023-05-21T04:36:29.172Z,93.90
2023-05-21T04:37:29.316Z,93.80
2023-05-21T04:38:29.212Z,93.76
2023-05-21T04:39:29.163Z,93.86
2023-05-21T04:40:29.131Z,93.86
2023-05-21T04:41:29.118Z,94.07
2023-05-21T04:42:29.132Z,94.07
2023-05-21T04:43:29.111Z,94.17
2023-05-21T04:44:29.099Z,94.17
2023-05-21T04:45:29.105Z,94.17
2023-05-21T04:46:29.125Z,94.27
2023-05-21T04:47:29.092Z,94.17
2023-05-21T04:48:29.078Z,94.17
2023-05-21T04:49:29.065Z,94.17
2023-05-21T04:50:29.054Z,94.07
2023-05-21T04:51:28.990Z,94.27
2023-05-21T04:52:29.064Z,94.07
2023-05-21T04:53:28.990Z,94.17
2023-05-21T04:54:28.994Z,94.07
2023-05-21T04:55:28.974Z,93.96
2023-05-21T04:56:28.979Z,93.96
2023-05-21T04:57:28.942Z,94.17
2023-05-21T04:58:29.018Z,94.27
2023-05-21T04:59:28.909Z,94.27
2023-05-21T05:00:28.972Z,94.17
2023-05-21T05:01:28.932Z,94.07
2023-05-21T05:02:29.068Z,94.07
2023-05-21T05:03:28.965Z,93.96
2023-05-21T05:04:28.894Z,93.96
2023-05-21T05:05:28.915Z,93.96
2023-05-21T05:06:28.856Z,94.07
2023-05-21T05:07:28.947Z,93.96
2023-05-21T05:08:28.888Z,94.07
2023-05-21T05:09:28.812Z,94.07
2023-05-21T05:10:28.867Z,94.07
2023-05-21T05:11:28.791Z,93.82
2023-05-21T05:12:28.787Z,93.45
2023-05-21T05:13:28.776Z,93.51
2023-05-21T05:14:28.778Z,93.71
2023-05-21T05:15:28.973Z,93.71
2023-05-21T05:16:28.771Z,93.62
2023-05-21T05:17:28.769Z,93.82
2023-05-21T05:18:28.770Z,93.92
2023-05-21T05:19:28.797Z,93.82
2023-05-21T05:20:28.716Z,93.82
2023-05-21T05:21:28.688Z,93.71
2023-05-21T05:22:28.687Z,93.62
2023-05-21T05:23:28.663Z,93.62
2023-05-21T05:24:28.683Z,93.71
2023-05-21T05:25:28.660Z,93.71
2023-05-21T05:26:28.665Z,93.82
2023-05-21T05:27:28.662Z,93.71
2023-05-21T05:28:29.270Z,93.51
2023-05-21T05:29:28.590Z,93.71
2023-05-21T05:30:28.632Z,93.62
2023-05-21T05:31:28.643Z,93.51
2023-05-21T05:32:28.591Z,93.41
2023-05-21T05:33:28.586Z,93.16
2023-05-21T05:34:28.565Z,93.06
2023-05-21T05:35:28.534Z,93.16
2023-05-21T05:36:28.527Z,92.96
2023-05-21T05:37:28.522Z,92.96
2023-05-21T05:38:28.540Z,92.76
2023-05-21T05:39:28.507Z,92.86
2023-05-21T05:40:28.511Z,92.76
2023-05-21T05:41:28.477Z,92.86
2023-05-21T05:42:28.489Z,92.86
2023-05-21T05:43:28.461Z,92.65
2023-05-21T05:44:28.443Z,92.86
2023-05-21T05:45:28.441Z,92.14
2023-05-21T05:46:28.442Z,92.14
2023-05-21T05:47:28.478Z,92.30
2023-05-21T05:48:28.407Z,92.51
2023-05-21T05:49:28.404Z,92.10
2023-05-21T05:50:28.397Z,92.10
2023-05-21T05:51:28.388Z,92.10
2023-05-21T05:52:28.373Z,92.10
2023-05-21T05:53:28.342Z,92.00
2023-05-21T05:54:28.343Z,92.00
2023-05-21T05:55:28.333Z,91.65
2023-05-21T05:56:28.319Z,91.14
2023-05-21T05:57:28.304Z,91.35
2023-05-21T05:58:28.304Z,91.25
2023-05-21T05:59:28.297Z,91.05
2023-05-21T06:00:28.297Z,91.55
2023-05-21T06:01:28.330Z,91.55
2023-05-21T06:02:28.341Z,91.14
2023-05-21T06:03:28.509Z,91.14
2023-05-21T06:04:28.238Z,91.35
2023-05-21T06:05:28.270Z,91.65
2023-05-21T06:06:28.259Z,91.55
2023-05-21T06:07:28.208Z,91.45
2023-05-21T06:08:28.234Z,91.45
2023-05-21T06:09:28.213Z,91.10
2023-05-21T06:10:28.211Z,91.20
2023-05-21T06:11:28.167Z,91.30
2023-05-21T06:12:28.154Z,91.30
2023-05-21T06:13:28.180Z,91.00
2023-05-21T06:14:28.196Z,90.59
2023-05-21T06:15:28.109Z,90.90
2023-05-21T06:16:28.149Z,91.10
2023-05-21T06:17:28.136Z,91.20
2023-05-21T06:18:28.127Z,91.30
2023-05-21T06:19:29.045Z,90.90
2023-05-21T06:20:28.111Z,90.90
2023-05-21T06:21:28.094Z,90.39
2023-05-21T06:22:28.145Z,90.49
2023-05-21T06:23:28.047Z,90.66
2023-05-21T06:24:28.087Z,90.86
2023-05-21T06:25:28.038Z,91.06
2023-05-21T06:26:28.035Z,90.14
2023-05-21T06:27:28.057Z,90.35
2023-05-21T06:28:27.999Z,90.96
2023-05-21T06:29:28.031Z,91.16
2023-05-21T06:30:27.982Z,90.86
2023-05-21T06:31:28.018Z,90.55
2023-05-21T06:32:28.110Z,90.86
2023-05-21T06:33:28.063Z,90.35
2023-05-21T06:34:27.932Z,90.20
2023-05-21T06:35:27.947Z,90.11
2023-05-21T06:36:28.005Z,89.80
2023-05-21T06:37:27.919Z,89.59
2023-05-21T06:38:27.900Z,88.89
2023-05-21T06:39:27.898Z,89.09
2023-05-21T06:40:27.910Z,89.09
2023-05-21T06:41:27.905Z,89.59
2023-05-21T06:42:27.853Z,89.35
2023-05-21T06:43:27.870Z,88.64
2023-05-21T06:44:27.834Z,89.04
2023-05-21T06:45:27.843Z,88.54
2023-05-21T06:46:27.933Z,88.64
2023-05-21T06:47:27.859Z,88.80
2023-05-21T06:48:27.813Z,88.70
2023-05-21T06:49:27.833Z,88.80
2023-05-21T06:50:27.824Z,88.09
2023-05-21T06:51:27.794Z,87.59
2023-05-21T06:52:27.762Z,87.89
2023-05-21T06:53:27.750Z,88.29
2023-05-21T06:54:27.721Z,88.20
2023-05-21T06:55:27.756Z,88.60
2023-05-21T06:56:27.701Z,88.09
2023-05-21T06:57:27.724Z,87.59
2023-05-21T06:58:27.739Z,87.48
2023-05-21T06:59:27.690Z,87.89
2023-05-21T07:00:27.721Z,87.99
2023-05-21T07:01:27.695Z,88.20
2023-05-21T07:02:27.765Z,88.20
2023-05-21T07:03:27.729Z,88.15
2023-05-21T07:04:27.648Z,86.88
2023-05-21T07:05:27.649Z,87.59
2023-05-21T07:06:27.603Z,88.20
2023-05-21T07:07:27.607Z,88.05
2023-05-21T07:08:27.566Z,87.65
2023-05-21T07:09:27.581Z,87.65
2023-05-21T07:10:27.580Z,87.65
2023-05-21T07:11:27.576Z,87.24
2023-05-21T07:12:27.540Z,87.85
2023-05-21T07:13:27.516Z,86.94
2023-05-21T07:14:27.501Z,86.90
2023-05-21T07:15:27.518Z,86.59
2023-05-21T07:16:27.533Z,86.19
2023-05-21T07:17:27.529Z,86.49
2023-05-21T07:18:27.535Z,86.85
2023-05-21T07:19:27.576Z,86.55
2023-05-21T07:20:27.467Z,86.45
2023-05-21T07:21:27.456Z,86.15
2023-05-21T07:22:28.504Z,86.65
2023-05-21T07:23:27.473Z,85.90
2023-05-21T07:24:27.547Z,85.39
2023-05-21T07:25:27.433Z,84.99
2023-05-21T07:26:27.390Z,84.69
2023-05-21T07:27:27.391Z,84.65
2023-05-21T07:28:27.367Z,84.65
2023-05-21T07:29:27.386Z,85.25
2023-05-21T07:30:27.377Z,84.14
2023-05-21T07:31:27.452Z,83.13
2023-05-21T07:32:27.366Z,83.03
2023-05-21T07:33:27.315Z,84.00
2023-05-21T07:34:27.368Z,83.40
2023-05-21T07:35:27.289Z,83.09
2023-05-21T07:36:27.302Z,84.17
2023-05-21T07:37:27.372Z,82.75
2023-05-21T07:38:27.273Z,82.75
2023-05-21T07:39:27.267Z,82.65
2023-05-21T07:40:27.250Z,83.36
2023-05-21T07:41:27.251Z,82.41
2023-05-21T07:42:27.230Z,82.71
2023-05-21T07:43:27.245Z,82.57
2023-05-21T07:44:27.312Z,82.13
2023-05-21T07:45:27.299Z,80.92
2023-05-21T07:46:27.231Z,80.88
2023-05-21T07:47:27.183Z,80.07
2023-05-21T07:48:27.183Z,78.66
2023-05-21T07:49:27.192Z,79.06
2023-05-21T07:50:27.146Z,80.38
2023-05-21T07:51:27.122Z,80.27
2023-05-21T07:52:27.120Z,79.36
2023-05-21T07:53:27.116Z,79.57
2023-05-21T07:54:27.114Z,79.27
2023-05-21T07:55:27.121Z,80.18
2023-05-21T07:56:27.066Z,79.06
2023-05-21T07:57:27.080Z,79.71
2023-05-21T07:58:27.073Z,80.51
2023-05-21T07:59:27.066Z,80.31
2023-05-21T08:00:27.028Z,80.01
2023-05-21T08:01:27.082Z,79.41
2023-05-21T08:02:27.087Z,79.30
2023-05-21T08:03:27.200Z,80.51
2023-05-21T08:04:27.052Z,80.62
2023-05-21T08:05:26.979Z,79.64
2023-05-21T08:06:26.945Z,80.21
2023-05-21T08:07:26.976Z,80.82
2023-05-21T08:08:26.968Z,80.38
2023-05-21T08:09:26.934Z,79.77
2023-05-21T08:10:26.910Z,80.27
2023-05-21T08:11:26.954Z,78.66
2023-05-21T08:12:26.915Z,78.83
2023-05-21T08:13:26.879Z,79.13
2023-05-21T08:14:26.861Z,79.13
2023-05-21T08:15:26.864Z,78.59
2023-05-21T08:16:26.994Z,78.79
2023-05-21T08:17:26.860Z,78.22
2023-05-21T08:18:26.896Z,79.80
2023-05-21T08:19:26.860Z,78.69
2023-05-21T08:20:26.843Z,78.39
2023-05-21T08:21:26.837Z,78.28
2023-05-21T08:22:26.803Z,78.28
2023-05-21T08:23:26.791Z,78.19
2023-05-21T08:24:26.762Z,77.75
2023-05-21T08:25:26.799Z,78.15
2023-05-21T08:26:26.958Z,78.75
2023-05-21T08:27:26.766Z,77.44
2023-05-21T08:28:26.731Z,78.45
2023-05-21T08:29:26.714Z,77.44
2023-05-21T08:30:26.690Z,77.00
2023-05-21T08:31:26.747Z,74.89
2023-05-21T08:32:26.734Z,76.70
2023-05-21T08:33:26.686Z,76.84
2023-05-21T08:34:26.681Z,78.05
2023-05-21T08:35:26.676Z,77.75
2023-05-21T08:36:26.668Z,76.64
2023-05-21T08:37:26.657Z,77.61
2023-05-21T08:38:28.812Z,78.21
2023-05-21T08:39:26.644Z,76.60
2023-05-21T08:40:26.666Z,77.87
2023-05-21T08:41:26.602Z,76.46
2023-05-21T08:42:36.200Z,77.20
2023-05-21T08:43:26.647Z,76.23
2023-05-21T08:44:26.599Z,77.34
2023-05-21T08:45:26.623Z,77.14
2023-05-21T08:46:26.662Z,77.95
2023-05-21T08:47:26.595Z,78.31
2023-05-21T08:48:26.585Z,76.60
2023-05-21T08:49:27.319Z,76.64
2023-05-21T08:50:26.517Z,79.42
2023-05-21T08:51:26.487Z,79.02
2023-05-21T08:52:26.497Z,77.40
2023-05-21T08:53:28.578Z,79.08
2023-05-21T08:54:26.449Z,77.11
2023-05-21T08:55:27.015Z,76.20
2023-05-21T08:56:26.470Z,77.20
2023-05-21T08:57:26.452Z,77.24
2023-05-21T08:58:26.471Z,78.15
2023-05-21T08:59:26.441Z,77.95
2023-05-21T09:00:26.397Z,78.35
2023-05-21T09:01:26.766Z,76.94
2023-05-21T09:02:26.668Z,78.45
2023-05-21T09:03:26.548Z,79.02
2023-05-21T09:04:26.434Z,79.62
2023-05-21T09:05:26.353Z,79.28
2023-05-21T09:06:26.328Z,78.27
2023-05-21T09:07:26.375Z,79.18
2023-05-21T09:08:26.405Z,77.17
2023-05-21T09:09:26.331Z,77.17
2023-05-21T09:10:26.303Z,75.66
2023-05-21T09:11:26.287Z,77.27
2023-05-21T09:12:26.279Z,76.56
2023-05-21T09:13:26.302Z,76.06
2023-05-21T09:14:26.256Z,77.87
2023-05-21T09:15:26.239Z,76.76
2023-05-21T09:16:26.236Z,75.86
2023-05-21T09:17:26.307Z,77.17
2023-05-21T09:18:26.208Z,78.03
2023-05-21T09:19:26.319Z,79.44
2023-05-21T09:20:26.190Z,79.00
2023-05-21T09:21:26.252Z,77.39
2023-05-21T09:22:26.159Z,77.80
2023-05-21T09:23:26.167Z,77.29
2023-05-21T09:24:26.135Z,76.39
2023-05-21T09:25:26.184Z,74.78
2023-05-21T09:26:26.152Z,75.59
2023-05-21T09:27:26.140Z,75.52
2023-05-21T09:28:26.119Z,76.63
2023-05-21T09:29:26.164Z,76.12
2023-05-21T09:30:34.858Z,76.63
2023-05-21T09:31:26.145Z,78.14
2023-05-21T09:32:26.155Z,77.03
2023-05-21T09:33:26.077Z,77.63
2023-05-21T09:34:26.034Z,76.93
2023-05-21T09:35:26.044Z,76.43
2023-05-21T09:36:26.027Z,77.20
2023-05-21T09:37:27.554Z,76.59
2023-05-21T09:38:26.002Z,75.89
2023-05-21T09:39:26.019Z,76.03
2023-05-21T09:40:25.995Z,76.23
2023-05-21T09:41:25.990Z,78.54
2023-05-21T09:42:25.971Z,75.92
2023-05-21T09:43:25.993Z,76.03
2023-05-21T09:44:25.955Z,76.73
2023-05-21T09:45:25.914Z,76.63
2023-05-21T09:46:25.956Z,76.63
2023-05-21T09:47:26.071Z,76.53
2023-05-21T09:48:25.912Z,76.53
2023-05-21T09:49:26.725Z,76.69
2023-05-21T09:50:25.860Z,75.38
2023-05-21T09:51:25.889Z,75.99
2023-05-21T09:52:25.903Z,74.98
2023-05-21T09:53:25.883Z,76.56
2023-05-21T09:54:25.867Z,78.16
2023-05-21T09:55:25.870Z,76.42
2023-05-21T09:56:25.806Z,75.62
2023-05-21T09:57:25.850Z,75.92
2023-05-21T09:58:25.807Z,74.98
2023-05-21T09:59:25.801Z,74.11
2023-05-21T10:00:26.525Z,74.01
2023-05-21T10:01:25.774Z,74.41
2023-05-21T10:02:25.791Z,74.81
2023-05-21T10:03:25.764Z,74.31
2023-05-21T10:04:25.787Z,74.41
2023-05-21T10:05:25.765Z,75.01
2023-05-21T10:06:25.759Z,73.61
2023-05-21T10:07:25.737Z,75.21
2023-05-21T10:08:25.966Z,76.32
2023-05-21T10:09:25.663Z,75.18
2023-05-21T10:10:25.647Z,74.77
2023-05-21T10:11:25.672Z,76.18
2023-05-21T10:12:25.630Z,75.34
2023-05-21T10:13:25.640Z,74.14
2023-05-21T10:14:25.638Z,75.24
2023-05-21T10:15:25.762Z,73.54
2023-05-21T10:16:25.680Z,73.24
2023-05-21T10:17:25.694Z,72.74
2023-05-21T10:18:25.593Z,75.14
2023-05-21T10:19:25.649Z,72.43
2023-05-21T10:20:25.562Z,73.84
2023-05-21T10:21:25.550Z,74.04
2023-05-21T10:22:25.585Z,73.94
2023-05-21T10:23:25.588Z,75.04
2023-05-21T10:24:25.515Z,74.54
2023-05-21T10:25:25.491Z,74.84
2023-05-21T10:26:25.485Z,74.64
2023-05-21T10:27:25.482Z,74.94
2023-05-21T10:28:25.502Z,74.30
2023-05-21T10:29:25.465Z,72.03
2023-05-21T10:30:25.480Z,72.43
2023-05-21T10:31:25.438Z,73.64
2023-05-21T10:32:25.557Z,73.74
2023-05-21T10:33:26.138Z,73.47
2023-05-21T10:34:25.434Z,74.27
2023-05-21T10:35:25.417Z,74.98
2023-05-21T10:36:25.420Z,75.74
2023-05-21T10:37:25.383Z,74.64
2023-05-21T10:38:25.376Z,75.04
2023-05-21T10:39:25.448Z,73.70
2023-05-21T10:40:25.397Z,73.50
2023-05-21T10:41:25.365Z,73.77
2023-05-21T10:42:25.325Z,74.57
2023-05-21T10:43:25.328Z,73.07
2023-05-21T10:44:25.300Z,73.07
2023-05-21T10:45:25.342Z,73.10
2023-05-21T10:46:25.301Z,73.13
2023-05-21T10:47:25.318Z,74.24
2023-05-21T10:48:25.253Z,73.03
2023-05-21T10:49:25.239Z,76.04
2023-05-21T10:50:25.277Z,74.90
2023-05-21T10:51:25.883Z,73.30
2023-05-21T10:52:25.230Z,73.67
2023-05-21T10:53:25.196Z,72.90
2023-05-21T10:54:25.219Z,74.60
2023-05-21T10:55:25.213Z,73.36
2023-05-21T10:56:25.210Z,73.57
2023-05-21T10:57:25.203Z,72.47
2023-05-21T10:58:25.174Z,73.07
2023-05-21T10:59:25.177Z,72.66
2023-05-21T11:00:25.281Z,72.77
2023-05-21T11:01:25.151Z,73.50
2023-05-21T11:02:25.196Z,75.47
2023-05-21T11:03:25.242Z,73.27
2023-05-21T11:04:25.125Z,72.97
2023-05-21T11:05:25.084Z,73.86
2023-05-21T11:06:25.115Z,73.86
2023-05-21T11:07:25.141Z,73.33
2023-05-21T11:08:25.062Z,72.23
2023-05-21T11:09:25.057Z,71.69
2023-05-21T11:10:25.085Z,72.30
2023-05-21T11:11:25.012Z,72.86
2023-05-21T11:12:24.997Z,70.26
2023-05-21T11:13:25.009Z,69.59
2023-05-21T11:14:24.976Z,71.50
2023-05-21T11:15:24.999Z,69.29
2023-05-21T11:16:25.044Z,70.79
2023-05-21T11:17:24.972Z,74.60
2023-05-21T11:18:24.980Z,73.16
2023-05-21T11:19:24.958Z,71.62
2023-05-21T11:20:24.924Z,70.12
2023-05-21T11:21:24.897Z,70.43
2023-05-21T11:22:24.961Z,68.62
2023-05-21T11:23:24.911Z,70.12
2023-05-21T11:24:24.879Z,69.79
2023-05-21T11:25:24.901Z,70.03
2023-05-21T11:26:24.874Z,69.49
2023-05-21T11:27:24.836Z,71.19
2023-05-21T11:28:24.859Z,70.39
2023-05-21T11:29:24.832Z,70.89
2023-05-21T11:30:24.798Z,69.09
2023-05-21T11:31:24.824Z,71.09
2023-05-21T11:32:24.864Z,69.19
2023-05-21T11:33:24.844Z,69.29
2023-05-21T11:34:24.825Z,70.26
2023-05-21T11:35:24.781Z,68.86
2023-05-21T11:36:24.773Z,69.89
2023-05-21T11:37:24.748Z,70.49
2023-05-21T11:38:24.775Z,69.76
2023-05-21T11:39:24.704Z,69.79
2023-05-21T11:40:24.727Z,69.79
2023-05-21T11:41:24.685Z,69.26
2023-05-21T11:42:24.676Z,69.46
2023-05-21T11:43:24.669Z,68.26
2023-05-21T11:44:24.675Z,69.16
2023-05-21T11:45:24.649Z,69.26
2023-05-21T11:46:24.721Z,69.56
2023-05-21T11:47:24.727Z,68.76
2023-05-21T11:48:27.081Z,70.69
2023-05-21T11:49:24.659Z,71.29
2023-05-21T11:50:24.644Z,70.89
2023-05-21T11:51:24.691Z,70.09
2023-05-21T11:52:24.706Z,69.69
2023-05-21T11:53:24.575Z,69.62
2023-05-21T11:54:24.552Z,70.79
2023-05-21T11:55:24.529Z,69.99
2023-05-21T11:56:24.598Z,69.89
2023-05-21T11:57:24.520Z,70.19
2023-05-21T11:58:24.529Z,69.99
2023-05-21T11:59:24.503Z,71.99
2023-05-21T12:00:24.560Z,72.26
2023-05-21T12:01:24.479Z,70.26
2023-05-21T12:02:24.498Z,70.49
2023-05-21T12:03:24.502Z,70.46
2023-05-21T12:04:24.492Z,69.36
2023-05-21T12:05:24.482Z,70.36
2023-05-21T12:06:24.532Z,70.03
2023-05-21T12:07:24.409Z,69.76
2023-05-21T12:08:24.402Z,70.06
2023-05-21T12:09:24.455Z,70.96
2023-05-21T12:10:24.525Z,69.66
2023-05-21T12:11:24.386Z,71.36
2023-05-21T12:12:24.362Z,70.46
2023-05-21T12:13:24.357Z,71.33
2023-05-21T12:14:24.424Z,70.83
2023-05-21T12:15:24.366Z,69.02
2023-05-21T12:16:24.366Z,70.03
2023-05-21T12:17:24.355Z,70.26
2023-05-21T12:18:24.313Z,70.56
2023-05-21T12:19:24.330Z,70.16
2023-05-21T12:20:24.307Z,69.82
2023-05-21T12:21:24.289Z,69.53
2023-05-21T12:22:24.292Z,68.52
2023-05-21T12:23:24.259Z,69.53
2023-05-21T12:24:24.287Z,68.82
2023-05-21T12:25:24.265Z,69.99
2023-05-21T12:26:24.242Z,69.59
2023-05-21T12:27:24.201Z,68.49
2023-05-21T12:28:24.223Z,68.23
2023-05-21T12:29:24.192Z,68.82
2023-05-21T12:30:24.195Z,68.82
2023-05-21T12:31:24.189Z,70.06
2023-05-21T12:32:24.213Z,70.36
2023-05-21T12:33:25.188Z,71.36
2023-05-21T12:34:24.126Z,70.12
2023-05-21T12:35:24.661Z,69.36
2023-05-21T12:36:24.172Z,69.16
2023-05-21T12:37:24.169Z,69.73
2023-05-21T12:38:24.101Z,69.43
2023-05-21T12:39:24.098Z,68.63
2023-05-21T12:40:24.085Z,69.62
2023-05-21T12:41:24.075Z,69.23
2023-05-21T12:42:24.078Z,70.46
2023-05-21T12:43:24.082Z,70.76
2023-05-21T12:44:24.049Z,70.56
2023-05-21T12:45:24.020Z,69.69
2023-05-21T12:46:24.024Z,71.39
2023-05-21T12:47:24.037Z,70.46
2023-05-21T12:48:24.018Z,69.86
2023-05-21T12:49:24.006Z,70.46
2023-05-21T12:50:23.963Z,70.83
2023-05-21T12:51:24.002Z,69.53
2023-05-21T12:52:23.970Z,69.99